Kobuk Valley National Park, AK

4:06 PM AKDT op 01 april 2015 (GMT -0800)
Selawik | | Change Station
CLOSE
Current Station
Luchthaven
Location: Selawik,
Geometrische hoogte: 26 ft
Nabije weerstations

Hoogte 26 ft 66.60 °N, 159.99 °W | Updated 10 minutes ago

Overcast
Geheel bewolkt
9 °F
Voelt als -8 °F
N
15
Wind Variabel Wind van west

Vandaag
Hoog -- | Laag -- °F
--% Kans op neerslag
Gisteren
Hoog -- | Laag -- °F
Precip. -- inches
7:51 AM 9:40 PM
Wassende maan, 94% visible
Druk 30.09 inches
Zicht 8.0 mijlen
Wolken Merendeels bewolkt 4100 ft
Geheel bewolkt 9000 ft
Gevoelstemperatuur -8 °F
Dauwpunt 3 °F
Vochtigheid 79%
Neerslag 0.00 inches
Dikte sneeuw Niet beschikbaar.
UV 1 van de 12
Pollen Niet beschikbaar.
Luchtkwaliteit Niet beschikbaar.
Flu Activity Niet beschikbaar.
METAR PASK 012356Z AUTO 26013KT 8SM BKN041 OVC090 M13/M16 A3009 RMK AO1 11130 21150 411301150 52010

More Conditions Fewer Conditions

Druk 30.09 inches
Zicht 8.0 mijlen
Wolken Merendeels bewolkt 4100 ft
Geheel bewolkt 9000 ft
Gevoelstemperatuur -8 °F
Dauwpunt 3 °F
Vochtigheid 79%
Neerslag 0.00 inches
Dikte sneeuw Niet beschikbaar.
UV 1 van de 12
Pollen Niet beschikbaar.
Luchtkwaliteit Niet beschikbaar.
Flu Activity Niet beschikbaar.
METAR PASK 012356Z AUTO 26013KT 8SM BKN041 OVC090 M13/M16 A3009 RMK AO1 11130 21150 411301150 52010

More Conditions Fewer Conditions

10-Day Weather Forecast

Almanac

Astronomie

Apr. 01, 2015 Opkomst Ondergang
Werkelijke tijd
Burgerlijke schemering
Nautische schemering
Astronomische schemering
Maan
Golflengte van het zichtbare licht
Daglengte
Tomorrow will be .
, % of the Moon is Illuminated

Extremen vandaag

State Highs State Lows

Community

WunderPhotos

Upload Photos

1,810,130 foto’s ge-upload!

WunderBlogs® & News

Nearby

Luchtkwaliteit

  Luchtkwaliteit LK-index Verontreinigende stof
Not available.

Dikte sneeuw

Station Depth Geometrische hoogte

Aardbevingen

Stad Distance Mag. Time & Date
Minimum magnitude displayed is 2.5.

Watertemperatuur langs de kust

Plaats Temperatuur

Stations

Nabije weerstations

Locatie station Temp. Gevoelstemperatuur Dauwpunt Vochtigheid Wind Precip. Hoogte Geactualiseerd Type